Time;durP1;ratioP1;P1;durP2;ratioP2;P2;SDS_P1;SDS_P2;PMS_P1;PMS_P2;Temp;Humidity;BMP_temperature;BMP_pressure;BME280_temperature;BME280_humidity;BME280_pressure;Samples;Min_cycle;Max_cycle;Signal;HPM_P1;HPM_P2
2020/12/22 00:01:57;;;;;;;4.30;3.63;;;9.60;99.90;;;;;;5110720;28;20465;-73
2020/12/22 00:04:25;;;;;;;3.93;3.20;;;9.60;99.90;;;;;;5111047;28;20488;-73
2020/12/22 00:06:56;;;;;;;4.17;3.47;;;9.70;99.90;;;;;;5110187;28;20500;-73
2020/12/22 00:09:23;;;;;;;3.93;2.90;;;9.70;99.90;;;;;;5110023;28;20809;-73
2020/12/22 00:11:49;;;;;;;3.90;2.80;;;9.70;99.90;;;;;;5110828;28;20476;-72
2020/12/22 00:14:15;;;;;;;3.60;2.50;;;9.80;99.90;;;;;;5110205;28;20540;-73
2020/12/22 00:16:42;;;;;;;3.43;2.60;;;9.80;99.90;;;;;;5109427;28;20502;-73
2020/12/22 00:19:08;;;;;;;3.00;1.80;;;9.80;99.90;;;;;;5110723;28;20437;-73
2020/12/22 00:21:35;;;;;;;2.70;2.10;;;9.90;99.90;;;;;;5110186;28;21171;-73
2020/12/22 00:24:02;;;;;;;3.23;2.00;;;10.00;99.90;;;;;;5110377;28;20442;-73
2020/12/22 00:26:29;;;;;;;2.50;1.50;;;10.00;99.90;;;;;;5106415;28;20957;-73
2020/12/22 00:28:55;;;;;;;2.50;1.80;;;10.10;99.90;;;;;;5098914;28;20553;-73
2020/12/22 00:31:22;;;;;;;2.97;1.73;;;10.10;99.90;;;;;;5089464;28;20589;-73
2020/12/22 00:33:49;;;;;;;4.50;1.90;;;10.20;99.90;;;;;;5090219;28;20478;-73
2020/12/22 00:36:15;;;;;;;2.33;1.80;;;10.10;99.90;;;;;;5088470;28;20524;-73
2020/12/22 00:38:44;;;;;;;3.00;2.17;;;10.20;99.90;;;;;;5089787;28;20542;-73
2020/12/22 00:41:13;;;;;;;4.07;2.10;;;10.20;99.90;;;;;;5090010;28;20481;-73
2020/12/22 00:43:40;;;;;;;3.97;2.10;;;10.20;99.90;;;;;;5089483;28;20531;-72
2020/12/22 00:46:07;;;;;;;2.33;1.57;;;10.20;99.90;;;;;;5088533;28;21090;-73
2020/12/22 00:48:33;;;;;;;2.43;1.93;;;10.20;99.90;;;;;;5088979;28;20462;-72
2020/12/22 00:51:00;;;;;;;2.50;1.80;;;10.20;99.90;;;;;;5089313;28;20709;-73
2020/12/22 00:53:26;;;;;;;2.67;2.00;;;10.20;99.90;;;;;;5109305;28;20460;-72
2020/12/22 00:55:54;;;;;;;2.67;1.93;;;10.20;99.90;;;;;;5108531;28;20477;-72
2020/12/22 00:58:20;;;;;;;3.23;2.37;;;10.30;99.90;;;;;;5109343;28;20553;-72
2020/12/22 01:00:46;;;;;;;2.50;2.00;;;10.30;99.90;;;;;;5110352;28;21025;-71
2020/12/22 01:03:13;;;;;;;4.97;1.77;;;10.30;99.90;;;;;;5111535;28;20477;-72
2020/12/22 01:05:39;;;;;;;2.80;1.70;;;10.30;99.90;;;;;;5108275;28;20455;-73
2020/12/22 01:08:06;;;;;;;2.30;1.77;;;10.40;99.90;;;;;;5108556;28;20506;-72
2020/12/22 01:10:32;;;;;;;2.10;1.70;;;10.40;99.90;;;;;;5109140;28;20566;-73
2020/12/22 01:12:59;;;;;;;2.60;2.13;;;10.40;99.90;;;;;;5109469;28;20524;-73
2020/12/22 01:15:26;;;;;;;2.33;1.70;;;10.40;99.90;;;;;;5108969;28;21212;-73
2020/12/22 01:17:52;;;;;;;2.47;1.90;;;10.40;99.90;;;;;;5108888;28;20461;-73
2020/12/22 01:20:18;;;;;;;2.17;1.43;;;10.50;99.90;;;;;;5109153;28;20532;-73
2020/12/22 01:22:46;;;;;;;2.73;1.80;;;10.40;99.90;;;;;;5094910;28;20549;-73
2020/12/22 01:25:12;;;;;;;2.63;1.60;;;10.50;99.90;;;;;;5088305;28;20438;-73
2020/12/22 01:27:38;;;;;;;2.37;1.40;;;10.50;99.90;;;;;;5087775;28;20466;-72
2020/12/22 01:30:06;;;;;;;2.40;1.43;;;10.60;99.90;;;;;;5088633;28;20598;-73
2020/12/22 01:32:32;;;;;;;2.07;1.57;;;10.60;99.90;;;;;;5088327;28;20456;-73
2020/12/22 01:34:59;;;;;;;2.93;1.63;;;10.60;99.90;;;;;;5088647;28;21224;-72
2020/12/22 01:37:25;;;;;;;2.30;1.50;;;10.60;99.90;;;;;;5086909;28;20549;-72
2020/12/22 01:39:51;;;;;;;2.67;1.50;;;10.60;99.90;;;;;;5088073;28;20542;-72
2020/12/22 01:42:18;;;;;;;2.17;1.67;;;10.70;99.90;;;;;;5087699;28;20438;-72
2020/12/22 01:44:44;;;;;;;1.93;1.20;;;10.70;99.90;;;;;;5088422;28;20481;-73
2020/12/22 01:47:12;;;;;;;2.30;1.30;;;10.60;99.90;;;;;;5087397;28;20468;-72
2020/12/22 01:49:39;;;;;;;1.93;1.10;;;10.70;99.90;;;;;;5087891;28;21165;-73
2020/12/22 01:52:06;;;;;;;2.00;1.30;;;10.70;99.90;;;;;;5087832;28;20496;-72
2020/12/22 01:54:32;;;;;;;2.23;1.30;;;10.70;99.90;;;;;;5087342;28;20533;-73
2020/12/22 01:56:59;;;;;;;1.83;0.90;;;10.80;99.90;;;;;;5087425;28;20466;-72
2020/12/22 01:59:26;;;;;;;2.33;1.07;;;10.80;99.90;;;;;;5087809;28;20537;-70
2020/12/22 02:01:54;;;;;;;1.77;0.90;;;10.80;99.90;;;;;;5102736;28;20453;-71
2020/12/22 02:04:22;;;;;;;2.50;1.10;;;10.80;99.90;;;;;;5108694;28;20485;-70
2020/12/22 02:06:48;;;;;;;3.17;1.67;;;10.90;99.90;;;;;;5108196;28;20982;-70
2020/12/22 02:09:14;;;;;;;2.10;1.20;;;10.90;99.90;;;;;;5108440;28;20445;-70
2020/12/22 02:11:41;;;;;;;2.20;1.10;;;10.90;99.90;;;;;;5108816;28;20992;-71
2020/12/22 02:14:09;;;;;;;1.80;0.93;;;10.90;99.90;;;;;;5109210;28;20532;-71
2020/12/22 02:16:35;;;;;;;1.60;0.80;;;11.00;99.90;;;;;;5108348;28;20461;-71
2020/12/22 02:19:02;;;;;;;1.50;0.87;;;10.90;99.90;;;;;;5109239;28;20885;-71
2020/12/22 02:21:29;;;;;;;2.60;0.83;;;10.90;99.90;;;;;;5108976;28;20527;-71
2020/12/22 02:23:55;;;;;;;1.80;0.90;;;10.90;99.90;;;;;;5108643;28;20540;-69
2020/12/22 02:26:23;;;;;;;2.33;0.80;;;10.90;99.90;;;;;;5108086;28;20532;-70
2020/12/22 02:28:49;;;;;;;2.07;0.80;;;10.90;99.90;;;;;;5108835;28;20465;-70
2020/12/22 02:31:16;;;;;;;1.60;0.70;;;10.90;99.90;;;;;;5108513;28;20643;-70
2020/12/22 02:33:43;;;;;;;1.60;0.70;;;10.90;99.90;;;;;;5108649;28;20449;-70
2020/12/22 02:36:10;;;;;;;1.30;0.60;;;10.90;99.90;;;;;;5107906;28;20460;-70
2020/12/22 02:38:37;;;;;;;1.27;0.57;;;10.90;99.90;;;;;;5108497;28;20461;-70
2020/12/22 02:41:04;;;;;;;1.40;0.70;;;10.90;99.90;;;;;;5108791;28;20464;-71
2020/12/22 02:43:31;;;;;;;1.90;1.40;;;10.90;99.90;;;;;;5108563;28;20449;-71
2020/12/22 02:45:57;;;;;;;1.73;0.83;;;10.90;99.90;;;;;;5107927;28;20452;-70
2020/12/22 02:48:24;;;;;;;2.20;0.80;;;11.00;99.90;;;;;;5108241;28;20517;-71
2020/12/22 02:50:50;;;;;;;1.60;0.70;;;11.00;99.90;;;;;;5108335;28;20477;-71
2020/12/22 02:53:17;;;;;;;1.50;0.73;;;10.90;99.90;;;;;;5108717;28;20480;-70
2020/12/22 02:55:45;;;;;;;1.57;0.60;;;10.90;99.90;;;;;;5107793;28;20437;-71
2020/12/22 02:58:11;;;;;;;1.30;0.60;;;10.90;99.90;;;;;;5108644;28;20469;-70
2020/12/22 03:00:38;;;;;;;1.30;0.60;;;10.80;99.90;;;;;;5108409;28;20878;-71
2020/12/22 03:03:05;;;;;;;2.00;0.60;;;10.80;99.90;;;;;;5108346;28;20599;-71
2020/12/22 03:05:31;;;;;;;1.40;0.50;;;10.80;99.90;;;;;;5108130;28;20520;-71
2020/12/22 03:07:57;;;;;;;2.00;0.60;;;10.90;99.90;;;;;;5107779;28;20552;-71
2020/12/22 03:10:24;;;;;;;1.43;0.50;;;11.00;99.90;;;;;;5108349;28;20626;-71
2020/12/22 03:12:51;;;;;;;1.53;0.70;;;11.10;99.90;;;;;;5108429;28;20449;-69
2020/12/22 03:15:17;;;;;;;1.50;0.60;;;11.10;99.90;;;;;;5108082;28;20977;-70
2020/12/22 03:17:44;;;;;;;1.40;0.80;;;11.20;99.90;;;;;;5107415;28;20557;-70
2020/12/22 03:20:12;;;;;;;1.30;0.50;;;11.20;99.90;;;;;;5108310;28;20827;-70
2020/12/22 03:22:38;;;;;;;1.53;0.57;;;11.20;99.90;;;;;;5112150;28;20445;-71
2020/12/22 03:25:05;;;;;;;1.77;0.53;;;11.20;99.90;;;;;;5112019;28;20497;-70
2020/12/22 03:27:32;;;;;;;1.30;0.57;;;11.30;99.90;;;;;;5111182;28;20521;-70
2020/12/22 03:30:00;;;;;;;1.30;0.60;;;11.40;99.90;;;;;;5111852;28;20528;-73
2020/12/22 03:32:26;;;;;;;2.33;0.60;;;11.50;99.90;;;;;;5111609;28;20964;-69
2020/12/22 03:34:52;;;;;;;1.30;0.50;;;11.50;99.90;;;;;;5110950;28;20457;-70
2020/12/22 03:37:20;;;;;;;1.37;0.47;;;11.50;99.90;;;;;;5110664;28;20468;-72
2020/12/22 03:39:48;;;;;;;1.30;0.60;;;11.50;99.90;;;;;;5111865;28;20445;-71
2020/12/22 03:42:14;;;;;;;1.30;0.50;;;11.50;99.90;;;;;;5111879;28;20469;-72
2020/12/22 03:44:41;;;;;;;1.43;0.50;;;11.60;99.90;;;;;;5111974;28;20459;-72
2020/12/22 03:47:08;;;;;;;1.90;0.60;;;11.60;99.90;;;;;;5111415;28;21006;-71
2020/12/22 03:49:35;;;;;;;1.50;0.50;;;11.50;99.90;;;;;;5112723;28;20449;-73
2020/12/22 03:52:01;;;;;;;2.13;0.70;;;11.50;99.90;;;;;;5112296;28;20477;-72
2020/12/22 03:54:27;;;;;;;3.20;0.60;;;11.50;99.90;;;;;;5111752;28;20567;-72
2020/12/22 03:56:54;;;;;;;1.20;0.50;;;11.60;99.90;;;;;;5110911;28;20469;-72
2020/12/22 03:59:21;;;;;;;1.20;0.50;;;11.60;99.90;;;;;;5111411;28;20445;-72
2020/12/22 04:01:49;;;;;;;1.87;0.50;;;11.50;99.90;;;;;;5111439;28;20811;-72
2020/12/22 04:04:18;;;;;;;1.73;0.50;;;11.50;99.90;;;;;;5111433;28;20548;-72
2020/12/22 04:06:45;;;;;;;1.70;0.40;;;11.50;99.90;;;;;;5110859;28;20803;-72
2020/12/22 04:09:12;;;;;;;1.33;0.63;;;11.40;99.90;;;;;;5111530;28;20445;-71
2020/12/22 04:11:40;;;;;;;1.33;0.40;;;11.40;99.90;;;;;;5111326;28;20477;-73
2020/12/22 04:14:07;;;;;;;1.20;0.50;;;11.40;99.90;;;;;;5111207;28;20871;-71
2020/12/22 04:16:34;;;;;;;1.33;0.60;;;11.40;99.90;;;;;;5110470;28;20453;-72
2020/12/22 04:19:00;;;;;;;2.27;0.70;;;11.50;99.90;;;;;;5111073;28;20455;-72
2020/12/22 04:21:28;;;;;;;1.20;0.60;;;11.60;99.90;;;;;;5111373;28;20437;-71
2020/12/22 04:23:54;;;;;;;1.90;0.47;;;11.70;99.90;;;;;;5111180;28;20540;-74
2020/12/22 04:26:21;;;;;;;3.00;0.50;;;11.70;99.90;;;;;;5110410;28;20802;-72
2020/12/22 04:28:48;;;;;;;1.20;0.50;;;11.80;99.90;;;;;;5110769;28;20465;-71
2020/12/22 04:31:14;;;;;;;1.30;0.50;;;11.80;99.90;;;;;;5110971;28;20485;-72
2020/12/22 04:33:40;;;;;;;1.70;0.53;;;11.80;99.90;;;;;;5110266;28;20811;-72
2020/12/22 04:36:07;;;;;;;1.30;0.50;;;11.80;99.90;;;;;;5110048;28;21002;-72
2020/12/22 04:38:34;;;;;;;1.87;0.60;;;11.80;99.90;;;;;;5110491;28;20548;-72
2020/12/22 04:41:02;;;;;;;1.63;0.60;;;11.80;99.90;;;;;;5110575;28;20433;-73
2020/12/22 04:43:30;;;;;;;1.20;0.50;;;11.70;99.90;;;;;;5110267;28;20488;-72
2020/12/22 04:46:03;;;;;;;1.30;0.60;;;11.80;99.90;;;;;;5109630;28;20992;-72
2020/12/22 04:48:33;;;;;;;1.57;0.67;;;11.80;99.90;;;;;;5110272;28;20483;-71
2020/12/22 04:51:01;;;;;;;1.20;0.50;;;11.80;99.90;;;;;;5110499;28;20901;-72
2020/12/22 04:53:31;;;;;;;1.40;0.77;;;11.90;99.90;;;;;;5110362;28;20445;-72
2020/12/22 04:55:58;;;;;;;1.20;0.40;;;11.90;99.90;;;;;;5109609;28;20506;-72
2020/12/22 04:58:27;;;;;;;1.40;0.50;;;11.90;99.90;;;;;;5110346;28;20517;-72
2020/12/22 05:00:55;;;;;;;1.30;0.50;;;11.90;99.90;;;;;;5110260;28;20429;-72
2020/12/22 05:03:22;;;;;;;1.30;0.60;;;11.80;99.90;;;;;;5110065;28;20449;-72
2020/12/22 05:05:48;;;;;;;1.43;0.63;;;11.90;99.90;;;;;;5109595;28;20468;-71
2020/12/22 05:08:15;;;;;;;1.83;0.70;;;11.90;99.90;;;;;;5109901;28;20487;-72
2020/12/22 05:10:42;;;;;;;2.37;0.60;;;11.80;99.90;;;;;;5109901;28;20599;-72
2020/12/22 05:13:10;;;;;;;1.60;0.50;;;11.80;99.90;;;;;;5109867;28;20521;-71
2020/12/22 05:15:39;;;;;;;1.67;0.57;;;11.80;99.90;;;;;;5109821;28;20464;-71
2020/12/22 05:18:07;;;;;;;1.20;0.50;;;11.90;99.90;;;;;;5109596;28;20461;-71
2020/12/22 05:20:33;;;;;;;1.47;0.60;;;11.80;99.90;;;;;;5109780;28;20494;-72
2020/12/22 05:23:00;;;;;;;1.30;0.50;;;11.90;99.90;;;;;;5109599;28;20453;-72
2020/12/22 05:25:28;;;;;;;1.20;0.50;;;11.90;99.90;;;;;;5110050;28;20452;-71
2020/12/22 05:27:56;;;;;;;1.40;0.50;;;11.90;99.90;;;;;;5109030;28;20560;-71
2020/12/22 05:30:24;;;;;;;1.57;0.50;;;11.90;99.90;;;;;;5109466;28;20960;-71
2020/12/22 05:32:51;;;;;;;1.40;0.53;;;11.90;99.90;;;;;;5109615;28;20911;-71
2020/12/22 05:35:18;;;;;;;1.40;0.60;;;11.90;99.90;;;;;;5109463;28;20639;-71
2020/12/22 05:37:46;;;;;;;2.43;0.60;;;11.90;99.90;;;;;;5108749;28;20461;-73
2020/12/22 05:40:13;;;;;;;1.30;0.50;;;11.90;99.90;;;;;;5109497;28;20441;-71
2020/12/22 05:42:41;;;;;;;1.20;0.40;;;11.80;99.90;;;;;;5109548;28;20528;-71
2020/12/22 05:45:09;;;;;;;2.80;0.60;;;11.80;99.90;;;;;;5108423;28;20991;-72
2020/12/22 05:47:36;;;;;;;1.20;0.50;;;11.90;99.90;;;;;;5108640;28;20483;-70
2020/12/22 05:50:04;;;;;;;1.60;0.73;;;11.90;99.90;;;;;;5109007;28;20481;-72
2020/12/22 05:52:31;;;;;;;2.07;0.80;;;11.90;99.90;;;;;;5109585;28;20484;-71
2020/12/22 05:54:59;;;;;;;1.80;0.47;;;12.00;99.90;;;;;;5109428;28;20441;-71
2020/12/22 05:57:27;;;;;;;3.40;0.60;;;12.00;99.90;;;;;;5108780;28;20465;-71
2020/12/22 05:59:54;;;;;;;1.40;0.60;;;12.10;99.90;;;;;;5109353;28;20434;-71
2020/12/22 06:02:28;;;;;;;2.70;0.60;;;12.10;99.90;;;;;;5109025;28;20454;-72
2020/12/22 06:04:57;;;;;;;1.30;0.57;;;12.10;99.90;;;;;;5109363;28;20445;-71
2020/12/22 06:07:24;;;;;;;1.53;0.50;;;12.20;99.90;;;;;;5108397;28;20642;-71
2020/12/22 06:09:50;;;;;;;1.20;0.40;;;12.20;99.90;;;;;;5108672;28;20478;-71
2020/12/22 06:12:18;;;;;;;1.37;0.50;;;12.20;99.90;;;;;;5108816;28;20491;-70
2020/12/22 06:14:48;;;;;;;1.10;0.40;;;12.30;99.90;;;;;;5108700;28;20469;-72
2020/12/22 06:17:14;;;;;;;1.17;0.50;;;12.30;99.90;;;;;;5107958;28;20552;-70
2020/12/22 06:19:42;;;;;;;1.20;0.40;;;12.40;99.90;;;;;;5108896;28;20437;-70
2020/12/22 06:22:11;;;;;;;2.03;0.57;;;12.40;99.90;;;;;;5108618;28;20869;-71
2020/12/22 06:24:38;;;;;;;1.20;0.50;;;12.40;99.90;;;;;;5108732;28;20437;-71
2020/12/22 06:27:06;;;;;;;1.30;0.40;;;12.50;99.90;;;;;;5107803;28;20461;-71
2020/12/22 06:29:32;;;;;;;1.20;0.40;;;12.50;99.90;;;;;;5108552;28;20500;-71
2020/12/22 06:32:32;;;;;;;3.10;0.50;;;12.50;99.90;;;;;;5108529;28;21011;-71
2020/12/22 06:35:27;;;;;;;1.40;0.50;;;12.60;99.90;;;;;;5065689;28;20552;-71
2020/12/22 06:37:55;;;;;;;1.53;0.50;;;12.60;99.90;;;;;;5064682;28;20518;-71
2020/12/22 06:40:52;;;;;;;1.53;0.50;;;12.60;99.90;;;;;;5093378;28;20479;-71
2020/12/22 06:43:42;;;;;;;1.27;0.47;;;12.60;99.90;;;;;;5108835;28;20832;-73
2020/12/22 06:46:10;;;;;;;1.50;0.50;;;12.60;99.90;;;;;;5108361;28;20441;-70
2020/12/22 06:48:46;;;;;;;1.20;0.40;;;12.70;99.90;;;;;;5108899;28;20467;-71
2020/12/22 06:51:23;;;;;;;1.30;0.60;;;12.70;99.90;;;;;;5109500;28;20575;-71
2020/12/22 06:53:50;;;;;;;1.47;0.43;;;12.70;99.90;;;;;;5109164;28;20441;-71
2020/12/22 06:56:37;;;;;;;1.30;0.50;;;12.70;99.90;;;;;;5109652;28;20480;-71
2020/12/22 06:59:04;;;;;;;1.20;0.50;;;12.70;99.90;;;;;;5112757;28;20440;-70
2020/12/22 07:01:32;;;;;;;1.33;0.50;;;12.80;99.90;;;;;;5112622;28;20451;-70
2020/12/22 07:04:13;;;;;;;1.37;0.43;;;12.80;99.90;;;;;;5112543;28;20468;-70
2020/12/22 07:06:53;;;;;;;1.97;0.40;;;12.80;99.90;;;;;;5111626;28;20782;-70
2020/12/22 07:09:21;;;;;;;2.03;0.60;;;12.80;99.90;;;;;;5112650;28;20445;-71
2020/12/22 07:11:49;;;;;;;1.67;0.50;;;12.80;99.90;;;;;;5112421;28;20477;-71
2020/12/22 07:14:17;;;;;;;1.10;0.40;;;12.80;99.90;;;;;;5112348;28;20456;-71
2020/12/22 07:16:50;;;;;;;1.87;0.47;;;12.80;99.90;;;;;;5111389;28;20961;-71
2020/12/22 07:19:21;;;;;;;1.40;0.50;;;12.80;99.90;;;;;;5112083;28;20441;-71
2020/12/22 07:21:48;;;;;;;3.60;0.63;;;12.90;99.90;;;;;;5112047;28;20433;-72
2020/12/22 07:24:14;;;;;;;1.43;0.50;;;12.90;99.90;;;;;;5112225;28;20471;-70
2020/12/22 07:26:42;;;;;;;1.20;0.50;;;12.90;99.90;;;;;;5111481;28;20516;-71
2020/12/22 07:29:08;;;;;;;3.73;0.50;;;13.00;99.90;;;;;;5111970;28;20536;-71
2020/12/22 07:31:35;;;;;;;1.40;0.50;;;13.00;99.90;;;;;;5111758;28;21052;-71
2020/12/22 07:34:05;;;;;;;1.33;0.50;;;13.00;99.90;;;;;;5111817;28;20501;-70
2020/12/22 07:36:32;;;;;;;1.70;0.50;;;13.00;99.90;;;;;;5111422;28;20477;-70
2020/12/22 07:39:17;;;;;;;1.77;0.80;;;13.10;99.90;;;;;;5111511;28;21019;-71
2020/12/22 07:41:45;;;;;;;1.33;0.50;;;13.10;99.90;;;;;;5111942;28;20437;-70
2020/12/22 07:44:14;;;;;;;1.30;0.50;;;13.10;99.90;;;;;;5111730;28;20966;-71
2020/12/22 07:46:41;;;;;;;1.20;0.47;;;13.10;99.90;;;;;;5110809;28;20497;-71
2020/12/22 07:49:09;;;;;;;1.20;0.50;;;13.10;99.90;;;;;;5111576;28;20441;-70
2020/12/22 07:51:36;;;;;;;1.23;0.57;;;13.00;99.90;;;;;;5111668;28;20568;-70
2020/12/22 07:54:05;;;;;;;3.07;0.47;;;13.00;99.90;;;;;;5111552;28;20525;-71
2020/12/22 07:56:33;;;;;;;1.23;0.50;;;12.90;99.90;;;;;;5110655;28;20552;-71
2020/12/22 07:59:03;;;;;;;1.23;0.60;;;12.90;99.90;;;;;;5111182;28;20556;-70
2020/12/22 08:01:37;;;;;;;1.20;0.40;;;12.90;99.90;;;;;;5111453;28;20448;-70
2020/12/22 08:04:12;;;;;;;1.20;0.50;;;13.00;99.90;;;;;;5111608;28;20441;-71
2020/12/22 08:06:38;;;;;;;1.20;0.40;;;13.00;99.90;;;;;;5110558;28;20436;-71
2020/12/22 08:09:05;;;;;;;1.50;0.50;;;13.00;99.90;;;;;;5110348;28;20947;-71
2020/12/22 08:11:32;;;;;;;1.30;0.57;;;13.00;99.90;;;;;;5111318;28;20491;-71
2020/12/22 08:14:02;;;;;;;2.33;0.50;;;13.00;99.90;;;;;;5111530;28;20448;-69
2020/12/22 08:16:31;;;;;;;2.33;0.60;;;13.10;99.90;;;;;;5110836;28;21321;-69
2020/12/22 08:18:59;;;;;;;1.77;0.60;;;13.10;99.90;;;;;;5111037;28;20548;-70
2020/12/22 08:21:26;;;;;;;1.40;0.57;;;13.20;99.90;;;;;;5111157;28;20463;-69
2020/12/22 08:23:54;;;;;;;1.30;0.50;;;13.20;99.90;;;;;;5111220;28;20509;-70
2020/12/22 08:26:20;;;;;;;1.53;0.50;;;13.30;99.90;;;;;;5110159;28;20516;-69
2020/12/22 08:28:54;;;;;;;1.40;0.63;;;13.20;99.90;;;;;;5110791;28;21116;-69
2020/12/22 08:31:24;;;;;;;1.67;0.63;;;13.20;99.90;;;;;;5110777;28;20560;-70
2020/12/22 08:33:53;;;;;;;1.43;0.50;;;13.20;99.90;;;;;;5110880;28;20536;-72
2020/12/22 08:36:20;;;;;;;1.40;0.50;;;13.20;99.90;;;;;;5110288;28;20527;-70
2020/12/22 08:38:47;;;;;;;1.50;0.50;;;13.20;99.90;;;;;;5110956;28;20465;-71
2020/12/22 08:41:16;;;;;;;1.40;0.53;;;13.20;99.90;;;;;;5110994;28;20903;-70
2020/12/22 08:43:50;;;;;;;1.20;0.50;;;13.30;99.90;;;;;;5111694;28;20470;-71
2020/12/22 08:46:17;;;;;;;1.20;0.50;;;13.30;99.90;;;;;;5110604;28;20445;-71
2020/12/22 08:48:45;;;;;;;1.80;0.50;;;13.40;99.90;;;;;;5110964;28;20552;-71
2020/12/22 08:51:11;;;;;;;1.53;0.63;;;13.50;99.90;;;;;;5110590;28;20483;-71
2020/12/22 08:53:49;;;;;;;1.30;0.43;;;13.50;99.90;;;;;;5107142;28;20891;-71
2020/12/22 08:56:15;;;;;;;1.60;0.77;;;13.60;99.90;;;;;;5092755;28;20820;-71
2020/12/22 08:58:56;;;;;;;1.60;0.60;;;13.60;99.90;;;;;;5106230;28;20614;-72
2020/12/22 09:01:25;;;;;;;1.40;0.50;;;13.60;99.90;;;;;;5096841;28;20526;-71
2020/12/22 09:03:54;;;;;;;1.30;0.50;;;13.60;99.90;;;;;;5100730;28;20524;-73
2020/12/22 09:06:32;;;;;;;1.30;0.50;;;13.60;99.90;;;;;;5110460;28;20518;-74
2020/12/22 09:09:00;;;;;;;1.27;0.57;;;13.60;99.90;;;;;;5103355;28;20983;-72
2020/12/22 09:11:26;;;;;;;1.30;0.50;;;13.60;99.90;;;;;;5116353;28;20474;-73
2020/12/22 09:14:03;;;;;;;1.30;0.50;;;13.70;99.90;;;;;;5118468;28;20465;-70
2020/12/22 09:16:50;;;;;;;1.23;0.50;;;13.70;99.90;;;;;;5115770;28;20449;-71
2020/12/22 09:19:18;;;;;;;1.73;0.50;;;13.70;99.90;;;;;;5107413;28;20520;-73
2020/12/22 09:21:45;;;;;;;1.40;0.50;;;13.70;99.90;;;;;;5099515;28;20476;-72
2020/12/22 09:24:19;;;;;;;1.20;0.50;;;13.60;99.90;;;;;;5095078;28;20532;-74
2020/12/22 09:27:00;;;;;;;1.57;0.57;;;13.60;99.90;;;;;;5102420;28;20514;-72
2020/12/22 09:29:27;;;;;;;1.20;0.50;;;13.60;99.90;;;;;;5108087;28;20449;-75
2020/12/22 09:31:54;;;;;;;1.40;0.50;;;13.70;99.90;;;;;;5110572;28;21073;-75
2020/12/22 09:34:23;;;;;;;1.83;0.50;;;13.70;99.90;;;;;;5110877;28;21268;-74
2020/12/22 09:36:51;;;;;;;1.30;0.60;;;13.70;99.90;;;;;;5111455;28;20475;-72
2020/12/22 09:39:17;;;;;;;1.20;0.50;;;13.70;99.90;;;;;;5105993;28;20454;-72
2020/12/22 09:41:44;;;;;;;1.33;0.50;;;13.70;99.90;;;;;;5109581;28;20469;-72
2020/12/22 09:44:11;;;;;;;1.93;0.50;;;13.70;99.90;;;;;;5110910;28;20454;-74
2020/12/22 09:46:38;;;;;;;1.60;0.60;;;13.50;99.90;;;;;;5108846;28;20448;-73
2020/12/22 09:49:05;;;;;;;1.30;0.50;;;13.40;99.90;;;;;;5104542;28;20479;-74
2020/12/22 09:51:32;;;;;;;2.90;0.50;;;13.30;99.90;;;;;;5109673;28;20485;-74
2020/12/22 09:53:58;;;;;;;1.80;0.60;;;13.20;99.90;;;;;;5104456;28;20448;-77
2020/12/22 09:56:25;;;;;;;1.27;0.50;;;13.10;99.90;;;;;;5122595;27;20498;-74
2020/12/22 09:58:52;;;;;;;1.87;0.60;;;13.00;99.90;;;;;;5130365;27;20538;-75
2020/12/22 10:01:22;;;;;;;1.50;0.80;;;13.00;99.90;;;;;;5130335;27;20444;-73
2020/12/22 10:03:49;;;;;;;1.40;0.60;;;13.00;99.90;;;;;;5130179;27;20531;-74
2020/12/22 10:06:17;;;;;;;1.40;0.53;;;13.00;99.90;;;;;;5127306;27;20875;-76
2020/12/22 10:08:44;;;;;;;1.20;0.50;;;13.10;99.90;;;;;;5131391;27;20460;-76
2020/12/22 10:11:11;;;;;;;1.47;0.60;;;13.10;99.90;;;;;;5130186;27;20900;-75
2020/12/22 10:13:37;;;;;;;1.73;0.80;;;13.20;99.90;;;;;;5130678;27;20436;-76
2020/12/22 10:16:12;;;;;;;1.40;0.50;;;13.30;99.90;;;;;;5129566;27;20476;-76
2020/12/22 10:18:39;;;;;;;1.70;0.77;;;13.40;99.90;;;;;;5130499;27;21034;-74
2020/12/22 10:21:07;;;;;;;1.87;0.70;;;13.50;99.90;;;;;;5132091;27;20500;-76
2020/12/22 10:23:33;;;;;;;1.23;0.53;;;13.60;99.90;;;;;;5132042;27;20870;-76
2020/12/22 10:26:03;;;;;;;1.80;0.70;;;13.70;99.90;;;;;;5131381;27;20475;-75
2020/12/22 10:28:30;;;;;;;1.40;0.60;;;13.70;99.90;;;;;;5112634;28;20520;-75
2020/12/22 10:30:57;;;;;;;1.30;0.50;;;13.70;99.90;;;;;;5110156;28;20882;-72
2020/12/22 10:33:24;;;;;;;1.40;0.70;;;13.80;99.90;;;;;;5114303;28;20484;-77
2020/12/22 10:35:51;;;;;;;1.50;0.70;;;13.80;99.90;;;;;;5114606;28;20524;-77
2020/12/22 10:38:18;;;;;;;1.63;0.80;;;13.90;99.90;;;;;;5113594;28;20556;-76
2020/12/22 10:40:44;;;;;;;1.80;0.60;;;14.00;99.90;;;;;;5108318;28;20457;-75
2020/12/22 10:43:12;;;;;;;1.40;0.50;;;14.00;99.90;;;;;;5108760;28;20481;-76
2020/12/22 10:45:39;;;;;;;1.30;0.57;;;14.00;99.90;;;;;;5107710;28;21031;-74
2020/12/22 10:48:06;;;;;;;1.40;0.60;;;14.10;99.90;;;;;;5108961;28;20838;-75
2020/12/22 10:50:34;;;;;;;2.17;0.60;;;14.00;99.90;;;;;;5108732;28;20448;-75
2020/12/22 10:53:01;;;;;;;1.63;0.50;;;14.10;99.90;;;;;;5103047;28;21046;-75
2020/12/22 10:55:27;;;;;;;1.40;0.50;;;14.00;99.90;;;;;;5088248;28;20537;-75
2020/12/22 10:57:53;;;;;;;1.90;0.50;;;14.10;99.90;;;;;;5090477;28;20908;-75
2020/12/22 11:00:21;;;;;;;1.57;0.50;;;14.10;99.90;;;;;;5107252;28;20461;-73
2020/12/22 11:02:50;;;;;;;1.70;0.73;;;14.00;99.90;;;;;;5107913;28;20442;-74
2020/12/22 11:05:16;;;;;;;1.40;0.50;;;14.00;99.90;;;;;;5107314;28;20478;-74
2020/12/22 11:07:46;;;;;;;2.37;0.60;;;14.10;99.90;;;;;;5106930;28;20492;-74
2020/12/22 11:10:13;;;;;;;2.13;0.77;;;14.10;99.90;;;;;;5101131;28;20447;-75
2020/12/22 11:12:40;;;;;;;1.40;0.60;;;14.10;99.90;;;;;;5097435;28;20484;-74
2020/12/22 11:15:07;;;;;;;1.40;0.60;;;14.10;99.90;;;;;;5107375;28;20548;-74
2020/12/22 11:17:34;;;;;;;1.30;0.50;;;14.20;99.90;;;;;;5106975;28;20465;-74
2020/12/22 11:20:00;;;;;;;1.60;0.60;;;14.30;99.90;;;;;;5108065;28;20516;-74
2020/12/22 11:22:30;;;;;;;1.87;0.60;;;14.30;99.90;;;;;;5108529;28;20441;-75
2020/12/22 11:24:56;;;;;;;1.40;0.60;;;14.30;99.90;;;;;;5108547;28;20449;-74
2020/12/22 11:27:23;;;;;;;1.80;0.60;;;14.30;99.90;;;;;;5107041;28;20538;-74
2020/12/22 11:29:49;;;;;;;1.40;0.70;;;14.30;99.90;;;;;;5107499;28;20538;-75
2020/12/22 11:32:16;;;;;;;2.07;0.60;;;14.30;99.90;;;;;;5107328;28;21333;-74
2020/12/22 11:34:43;;;;;;;1.10;0.40;;;14.30;99.90;;;;;;5107308;28;20848;-74
2020/12/22 11:37:09;;;;;;;1.30;0.50;;;14.30;99.90;;;;;;5100230;28;20484;-74
2020/12/22 11:39:36;;;;;;;2.90;1.07;;;14.30;99.90;;;;;;5103636;28;20437;-74
2020/12/22 11:42:04;;;;;;;1.67;0.60;;;14.30;99.90;;;;;;5087819;28;20446;-74
2020/12/22 11:44:31;;;;;;;3.93;0.60;;;14.30;99.90;;;;;;5091149;28;20463;-74
2020/12/22 11:46:57;;;;;;;1.60;0.60;;;14.30;99.90;;;;;;5103350;28;20459;-74
2020/12/22 11:49:25;;;;;;;1.93;0.50;;;14.30;99.90;;;;;;5112104;28;20525;-73
2020/12/22 11:52:00;;;;;;;2.13;0.60;;;14.30;99.90;;;;;;5103544;28;20518;-74
2020/12/22 11:54:26;;;;;;;1.40;0.50;;;14.30;99.90;;;;;;5111206;28;20455;-74
2020/12/22 11:56:53;;;;;;;2.70;0.67;;;14.30;99.90;;;;;;5094331;28;20444;-74
2020/12/22 11:59:20;;;;;;;2.40;0.60;;;14.30;99.90;;;;;;5102790;28;20445;-74
2020/12/22 12:01:46;;;;;;;1.30;0.53;;;14.30;99.90;;;;;;5102942;28;20462;-74
2020/12/22 12:04:13;;;;;;;2.03;0.83;;;14.30;99.90;;;;;;5096682;28;20517;-74
2020/12/22 12:06:45;;;;;;;1.47;0.60;;;14.30;99.90;;;;;;5091680;28;20537;-74
2020/12/22 12:09:12;;;;;;;1.77;0.60;;;14.40;99.90;;;;;;5091501;28;20518;-74
2020/12/22 12:11:38;;;;;;;1.27;0.40;;;14.40;99.90;;;;;;5092557;28;20478;-71
2020/12/22 12:14:05;;;;;;;1.40;0.60;;;14.40;99.90;;;;;;5091902;28;20454;-69
2020/12/22 12:16:31;;;;;;;3.10;0.60;;;14.40;99.90;;;;;;5093086;28;20553;-74
2020/12/22 12:18:58;;;;;;;1.40;0.50;;;14.40;99.90;;;;;;5100880;28;20540;-73
2020/12/22 12:21:24;;;;;;;1.40;0.50;;;14.50;99.90;;;;;;5111375;28;20480;-72
2020/12/22 12:23:50;;;;;;;1.40;0.60;;;14.50;99.90;;;;;;5089953;28;20446;-70
2020/12/22 12:26:18;;;;;;;1.60;0.70;;;14.50;99.90;;;;;;5095539;27;20451;-72
2020/12/22 12:28:44;;;;;;;1.50;0.77;;;14.50;99.90;;;;;;5106928;28;20501;-72
2020/12/22 12:31:13;;;;;;;1.90;0.67;;;14.60;99.90;;;;;;5110881;28;20502;-69
2020/12/22 12:33:40;;;;;;;1.53;0.80;;;14.50;99.90;;;;;;5109930;28;20557;-72
2020/12/22 12:36:06;;;;;;;1.50;0.70;;;14.50;99.90;;;;;;5109983;28;20445;-72
2020/12/22 12:38:33;;;;;;;1.20;0.50;;;14.50;99.90;;;;;;5105424;28;20465;-71
2020/12/22 12:41:00;;;;;;;1.37;0.60;;;14.50;99.90;;;;;;5101025;28;20464;-70
2020/12/22 12:43:27;;;;;;;2.77;0.77;;;14.50;99.90;;;;;;5108110;28;20686;-71
2020/12/22 12:45:54;;;;;;;2.33;1.00;;;14.50;99.90;;;;;;5104666;28;20550;-76
2020/12/22 12:48:20;;;;;;;1.57;0.60;;;14.60;99.90;;;;;;5097626;28;20461;-73
2020/12/22 12:50:46;;;;;;;1.40;0.70;;;14.60;99.90;;;;;;5098885;28;20534;-71
2020/12/22 12:53:13;;;;;;;1.40;0.60;;;14.50;99.90;;;;;;5097773;28;20549;-73